LJLJLJPZ

Guest
Details From LJLJ - LJUBLJANA
To LJPZ - PORTOROZ
Flight Number -
Tags generated
Created
Modified
Stats Distance 57 nm / 106 km
Max Altitude 0 ft / 0 m
Waypoints 3
Social Downloads 2
Likes 0
Share VATSIM

Download

Looking for another format? Having issues loading an existing format? Contact us
Advertisement - Login to hide

Notes

Basic altitude profile: - Ascent Rate: 2500ft/min - Ascent Speed: 250kts - Cruise Altitude: 35000ft - Cruise Speed: 420kts - Descent Rate: 1500ft/min - Descent Speed: 250kts Options: - Use NATs: yes - Use PACOTS: yes - Use low airways: yes - Use high airways: yes

Route

LJLJ PZ LJPZ

ID Type Via Altitude Latitude Longitude Leg Dist Tot Dist Heading (true) Name
O LJLJ APT - 0 ft / 0 m 46.22368˚ 14.45761˚ - 0 nm - LJUBLJANA
PZ NDB - 0 ft / 0 m 45.47747˚ 13.61492˚ 57 nm 57 nm 218° / 218° PORTOROZ NDB
O LJPZ APT - 0 ft / 0 m 45.47244˚ 13.61568˚ 0 nm 57 nm 174° / 174° PORTOROZ

Altitude Profile

Advertisement - Login to hide

LJLJ

Details ICAO LJLJ (LJU)
Name LJUBLJANA
Region Slovenia
Timezone Europe/Ljubljana (UTC+2.0)
Stats Elevation 1,273 ft / 388 m (AMSL)
Location 46.223685° 14.457608°
Runways 1
Magnetic Variation 3.713° E

METAR

LJLJ 280300Z VRB01KT 9999 1500SE MIFG SCT003 BKN033 12/12 Q1020 NOSIG

Decode

TAF

TAF LJLJ 272000Z 2721/2821 30003KT 9999 FEW040 SCT110 BKN230 PROB30 TEMPO 2722/2811 VRB15KT 5000 TSRA BKN035CB BECMG 2808/2810 13005KT TEMPO 2811/2821 SHRA SCT040TCU BKN055 PROB40 TEMPO 2811/2820 VRB15KT 5000 TSRA BKN035CB

Decode

Departure Runways

ID Width Length Bearing (true) Bearing (mag) Surface Threshold Offset Overrun Length
13 148 ft / 45 m 10,811 ft / 3,295 m 126.47° 122.76° Asphalt 0 ft / 0 m 0 ft / 0 m
31 148 ft / 45 m 10,811 ft / 3,295 m 306.49° 302.78° Asphalt 0 ft / 0 m 0 ft / 0 m

LJPZ

Details ICAO LJPZ (POW)
Name PORTOROZ
Region Slovenia
Timezone Europe/Ljubljana (UTC+2.0)
Stats Elevation 7 ft / 2 m (AMSL)
Location 45.472445° 13.615681°
Runways 1
Magnetic Variation 3.494° E

METAR

LJPZ 280300Z AUTO 12005KT 9999 NSC 18/15 Q1017

Decode

TAF

Not found

Destination Runways

ID Width Length Bearing (true) Bearing (mag) Surface Threshold Offset Overrun Length
15 98 ft / 30 m 3,939 ft / 1,201 m 151.28° 147.79° Asphalt 0 ft / 0 m 0 ft / 0 m
33 98 ft / 30 m 3,939 ft / 1,201 m 331.29° 327.80° Asphalt 751 ft / 229 m 0 ft / 0 m

Popular Alternatives